Time;durP1;ratioP1;P1;durP2;ratioP2;P2;SDS_P1;SDS_P2;PMS_P1;PMS_P2;Temp;Humidity;BMP_temperature;BMP_pressure;BME280_temperature;BME280_humidity;BME280_pressure;Samples;Min_cycle;Max_cycle;Signal;HPM_P1;HPM_P2
2022/11/03 00:01:08;;;;;;;;;3.75;3.50;;;;;14.96;62.46;100821.66;5073449;28;46255;-80
2022/11/03 00:03:34;;;;;;;;;5.50;4.75;;;;;14.93;62.27;100821.94;5072988;28;45625;-78
2022/11/03 00:06:06;;;;;;;;;4.50;3.75;;;;;14.93;62.60;100822.78;5067137;28;46380;-78
2022/11/03 00:08:36;;;;;;;;;4.25;4.00;;;;;14.94;62.58;100837.66;5072918;28;45751;-80
2022/11/03 00:11:09;;;;;;;;;5.50;4.50;;;;;14.94;62.58;100829.75;5072619;28;45621;-79
2022/11/03 00:13:36;;;;;;;;;5.00;4.00;;;;;14.93;62.77;100829.84;5072118;28;46667;-83
2022/11/03 00:16:01;;;;;;;;;6.00;4.50;;;;;14.84;62.69;100805.13;5067624;27;46186;-82
2022/11/03 00:18:27;;;;;;;;;4.25;4.25;;;;;14.83;62.84;100802.59;5066702;27;45649;-77
2022/11/03 00:20:57;;;;;;;;;6.00;5.00;;;;;14.85;62.72;100804.13;5053614;28;45707;-84
2022/11/03 00:23:25;;;;;;;;;5.00;4.50;;;;;14.81;62.86;100805.34;5069363;27;45890;-80
2022/11/03 00:25:50;;;;;;;;;7.00;5.25;;;;;14.87;62.78;100810.13;5067248;27;46576;-80
2022/11/03 00:28:17;;;;;;;;;5.00;4.00;;;;;14.87;62.72;100804.84;5058238;28;46249;-81
2022/11/03 00:30:42;;;;;;;;;7.50;5.25;;;;;14.86;62.75;100799.69;5072479;28;45874;-78
2022/11/03 00:33:08;;;;;;;;;5.75;5.00;;;;;14.82;62.74;100795.66;5075130;28;45926;-80
2022/11/03 00:35:33;;;;;;;;;5.75;3.75;;;;;14.84;63.16;100799.84;5075014;27;46447;-81
2022/11/03 00:37:58;;;;;;;;;6.50;4.50;;;;;14.66;63.20;100764.47;5074914;28;45613;-78
2022/11/03 00:40:24;;;;;;;;;5.50;4.00;;;;;14.71;62.94;100767.56;5072801;27;46304;-80
2022/11/03 00:42:49;;;;;;;;;6.50;5.00;;;;;14.83;62.94;100784.13;5074959;28;46338;-79
2022/11/03 00:45:14;;;;;;;;;4.00;3.00;;;;;14.84;63.12;100785.81;5075648;28;46027;-80
2022/11/03 00:48:28;;;;;;;;;5.00;3.25;;;;;14.83;63.26;100777.06;5075170;28;45588;-78
2022/11/03 00:50:25;;;;;;;;;6.00;4.00;;;;;14.69;63.44;100748.38;5072350;28;45696;-79
2022/11/03 00:52:50;;;;;;;;;4.50;3.75;;;;;14.81;63.30;100765.78;5075262;27;45902;-82
2022/11/03 00:55:16;;;;;;;;;6.00;5.00;;;;;14.78;63.62;100763.44;5072423;27;46272;-83
2022/11/03 00:57:41;;;;;;;;;4.75;3.75;;;;;14.80;63.48;100766.75;5077628;27;45698;-84
2022/11/03 01:00:07;;;;;;;;;4.00;3.75;;;;;14.80;63.27;100755.38;5081002;27;45760;-82
2022/11/03 01:02:32;;;;;;;;;4.00;4.00;;;;;14.76;63.15;100749.53;5082749;27;45960;-80
2022/11/03 01:07:42;;;;;;;;;3.25;3.25;;;;;14.76;63.48;100743.41;5079559;27;45789;-83
2022/11/03 01:10:08;;;;;;;;;5.00;4.00;;;;;14.74;63.45;100740.91;5058706;28;46329;-81
2022/11/03 01:12:34;;;;;;;;;5.00;3.75;;;;;14.72;63.72;100734.09;5076566;28;45678;-82
2022/11/03 01:14:59;;;;;;;;;6.00;4.00;;;;;14.71;63.67;100725.34;5078590;28;46291;-79
2022/11/03 01:17:27;;;;;;;;;3.50;3.00;;;;;14.75;63.39;100733.81;5079090;28;45645;-81
2022/11/03 01:19:52;;;;;;;;;3.75;3.00;;;;;14.67;63.98;100719.53;5079271;28;45732;-79
2022/11/03 01:22:19;;;;;;;;;4.50;3.75;;;;;14.74;63.42;100725.09;5079216;28;46362;-80
2022/11/03 01:24:45;;;;;;;;;3.25;3.00;;;;;14.74;63.72;100714.53;5078695;28;46070;-77
2022/11/03 01:27:13;;;;;;;;;5.25;4.00;;;;;14.74;63.84;100714.53;5077576;28;45500;-78
2022/11/03 01:29:39;;;;;;;;;4.75;3.25;;;;;14.67;63.65;100695.78;5077851;28;45687;-80
2022/11/03 01:32:04;;;;;;;;;3.50;2.50;;;;;14.73;64.01;100697.06;5076671;28;46279;-84
2022/11/03 01:34:30;;;;;;;;;6.25;5.00;;;;;14.75;63.85;100704.81;5076446;28;46106;-79
2022/11/03 01:36:56;;;;;;;;;6.00;4.00;;;;;14.68;63.78;100683.44;5076569;28;45840;-80
2022/11/03 01:39:21;;;;;;;;;5.00;4.00;;;;;14.75;63.96;100695.09;5058131;28;45656;-81
2022/11/03 01:41:50;;;;;;;;;4.75;3.00;;;;;14.76;63.69;100685.41;5076166;28;46698;-81
2022/11/03 01:44:16;;;;;;;;;5.25;3.75;;;;;14.76;63.75;100672.22;5076877;28;45477;-85
2022/11/03 01:46:50;;;;;;;;;2.75;2.50;;;;;14.73;63.98;100670.69;5076834;28;45626;-82
2022/11/03 01:49:19;;;;;;;;;4.75;4.00;;;;;14.73;64.10;100665.41;5076550;28;45588;-81
2022/11/03 01:51:53;;;;;;;;;4.00;3.75;;;;;14.73;63.67;100668.06;5076554;28;45709;-83
2022/11/03 01:54:22;;;;;;;;;3.25;2.75;;;;;14.71;63.78;100662.06;5076367;28;46101;-84
2022/11/03 01:56:50;;;;;;;;;3.50;3.25;;;;;14.62;63.90;100658.44;5077589;28;45621;-79
2022/11/03 01:59:17;;;;;;;;;6.00;4.00;;;;;14.69;63.97;100651.63;5076982;28;45488;-83
2022/11/03 02:01:44;;;;;;;;;4.00;3.25;;;;;14.66;64.25;100640.53;5076656;28;45944;-80
2022/11/03 02:04:14;;;;;;;;;3.00;2.75;;;;;14.60;63.68;100630.53;5076298;28;46182;-84
2022/11/03 02:06:40;;;;;;;;;4.00;3.50;;;;;14.65;63.93;100630.94;5077278;28;45726;-85
2022/11/03 02:09:07;;;;;;;;;4.50;4.00;;;;;14.66;64.47;100641.38;5078278;28;45431;-82
2022/11/03 02:14:20;;;;;;;;;4.00;4.00;;;;;14.62;64.33;100620.69;5078316;28;45981;-81
2022/11/03 02:16:52;;;;;;;;;3.00;3.00;;;;;14.61;64.44;100622.47;5088076;28;45633;-78
2022/11/03 02:19:33;;;;;;;;;5.75;3.75;;;;;14.57;64.16;100620.25;5081340;28;45744;-78
2022/11/03 02:22:22;;;;;;;;;4.00;3.00;;;;;14.60;64.29;100620.81;5076794;28;46533;-78
2022/11/03 02:24:47;;;;;;;;;3.00;2.25;;;;;14.61;64.21;100616.38;5078703;28;46424;-77
2022/11/03 02:27:12;;;;;;;;;4.25;3.50;;;;;14.61;64.30;100605.81;5080596;28;45458;-78
2022/11/03 02:29:38;;;;;;;;;5.75;3.00;;;;;14.56;64.24;100594.84;5080243;28;45938;-79
2022/11/03 02:32:10;;;;;;;;;3.00;3.00;;;;;14.61;64.18;100598.75;5081048;28;47369;-79
2022/11/03 02:34:46;;;;;;;;;4.00;4.00;;;;;14.55;64.50;100585.28;5080147;28;47388;-77
2022/11/03 02:37:18;;;;;;;;;4.50;4.00;;;;;14.62;64.56;100591.69;5077139;28;45764;-79
2022/11/03 02:39:47;;;;;;;;;3.00;3.00;;;;;14.62;64.36;100587.25;5075906;28;45886;-79
2022/11/03 02:42:14;;;;;;;;;4.00;3.00;;;;;14.62;64.34;100589.88;5075577;28;46321;-78
2022/11/03 02:44:42;;;;;;;;;3.50;3.50;;;;;14.62;64.44;100581.13;5075479;28;47556;-78
2022/11/03 02:47:10;;;;;;;;;4.50;3.00;;;;;14.54;64.62;100565.13;5075690;28;45605;-77
2022/11/03 02:49:54;;;;;;;;;4.00;3.75;;;;;14.62;64.35;100568.78;5075616;28;45709;-77
2022/11/03 02:52:37;;;;;;;;;3.00;2.00;;;;;14.62;64.29;100560.88;5075442;28;47416;-79
2022/11/03 02:55:11;;;;;;;;;5.50;3.75;;;;;14.62;64.67;100552.97;5074298;28;46133;-76
2022/11/03 02:57:44;;;;;;;;;5.00;3.00;;;;;14.62;64.47;100547.69;5075195;28;45568;-79
2022/11/03 03:00:11;;;;;;;;;3.75;3.75;;;;;14.50;64.52;100521.56;5075364;28;45605;-79
2022/11/03 03:03:32;;;;;;;;;4.00;2.25;;;;;14.59;64.87;100536.56;5074987;28;47738;-79
2022/11/03 03:06:04;;;;;;;;;4.75;4.00;;;;;14.61;64.53;100532.84;5022052;28;47460;-81
2022/11/03 03:08:31;;;;;;;;;3.75;3.00;;;;;14.58;64.24;100513.78;5032665;28;45907;-80
2022/11/03 03:11:00;;;;;;;;;4.25;3.00;;;;;14.55;64.83;100504.38;5032468;28;45919;-79
2022/11/03 03:13:25;;;;;;;;;5.75;5.75;;;;;14.53;64.84;100481.75;5031820;28;46488;-75
2022/11/03 03:16:33;;;;;;;;;3.50;3.25;;;;;14.61;64.85;100497.72;5032638;28;46165;-80
2022/11/03 03:19:21;;;;;;;;;2.50;2.50;;;;;14.59;64.46;100481.19;5032344;28;45571;-79
2022/11/03 03:21:51;;;;;;;;;5.00;4.00;;;;;14.60;64.77;100478.44;5032458;28;45881;-77
2022/11/03 03:24:30;;;;;;;;;4.25;3.50;;;;;14.58;64.78;100472.44;5032232;28;46939;-79
2022/11/03 03:27:02;;;;;;;;;6.25;4.00;;;;;14.60;64.37;100467.03;5032862;28;47384;-79
2022/11/03 03:29:43;;;;;;;;;3.00;3.00;;;;;14.55;64.69;100459.56;5033061;28;45626;-83
2022/11/03 03:32:10;;;;;;;;;8.50;3.25;;;;;14.54;64.84;100449.97;5034813;28;45625;-76
2022/11/03 03:34:40;;;;;;;;;3.25;3.00;;;;;14.54;65.01;100433.31;5035020;28;45592;-81
2022/11/03 03:37:07;;;;;;;;;2.00;1.75;;;;;14.51;64.83;100415.16;5034295;28;46540;-78
2022/11/03 03:39:36;;;;;;;;;3.00;3.00;;;;;14.49;64.71;100415.28;5053156;28;45770;-79
2022/11/03 03:42:03;;;;;;;;;3.25;3.00;;;;;14.51;64.87;100430.97;5074695;28;45774;-78
2022/11/03 03:44:29;;;;;;;;;4.50;4.00;;;;;14.53;65.02;100440.41;5074305;28;45502;-78
2022/11/03 03:47:12;;;;;;;;;4.25;3.25;;;;;14.53;64.68;100437.75;5074614;28;45664;-77
2022/11/03 03:49:37;;;;;;;;;4.75;3.75;;;;;14.50;64.61;100430.13;5074201;28;45667;-79
2022/11/03 03:52:03;;;;;;;;;4.00;4.00;;;;;14.49;64.85;100428.47;5074460;28;45524;-79
2022/11/03 03:54:28;;;;;;;;;5.75;3.50;;;;;14.52;64.62;100435.28;5074221;28;46545;-79
2022/11/03 03:57:01;;;;;;;;;4.00;3.00;;;;;14.54;65.13;100446.50;5074330;28;46305;-77
2022/11/03 03:59:27;;;;;;;;;2.75;2.00;;;;;14.51;64.93;100445.00;5074407;28;45641;-76
2022/11/03 04:01:53;;;;;;;;;4.50;4.00;;;;;14.53;64.70;100448.31;5074593;28;45605;-83
2022/11/03 04:04:18;;;;;;;;;4.00;3.00;;;;;14.54;64.71;100441.22;5057523;28;46572;-82
2022/11/03 04:06:43;;;;;;;;;5.00;3.00;;;;;14.42;64.78;100408.06;5079255;27;46410;-84
2022/11/03 04:09:12;;;;;;;;;3.50;3.00;;;;;14.51;64.65;100413.34;5078642;28;45647;-83
2022/11/03 04:26:21;;;;;;;;;4.25;3.00;;;;;14.37;64.95;100383.91;5079631;28;45711;-84
2022/11/03 04:28:48;;;;;;;;;6.25;3.50;;;;;14.45;64.97;100391.97;5060433;28;46182;-83
2022/11/03 04:31:16;;;;;;;;;5.75;3.75;;;;;14.46;65.25;100388.38;5060836;28;45621;-83
2022/11/03 04:33:42;;;;;;;;;4.25;3.75;;;;;14.47;65.01;100396.13;5079822;28;45751;-84
2022/11/03 04:36:26;;;;;;;;;4.25;3.00;;;;;14.46;65.05;100376.03;5079031;28;45591;-82
2022/11/03 04:42:18;;;;;;;;;3.25;3.00;;;;;14.45;64.97;100371.72;5078087;28;46022;-84
2022/11/03 04:44:45;;;;;;;;;5.25;3.00;;;;;14.44;65.10;100364.78;5079445;28;45652;-82
2022/11/03 04:47:13;;;;;;;;;3.75;3.00;;;;;14.38;65.10;100354.81;5081670;28;45679;-84
2022/11/03 04:49:39;;;;;;;;;7.00;4.50;;;;;14.41;65.17;100359.81;5082354;28;45546;-85
2022/11/03 04:52:20;;;;;;;;;5.00;3.00;;;;;14.43;64.89;100355.22;5083944;28;45636;-81
2022/11/03 04:58:28;;;;;;;;;3.25;3.00;;;;;14.42;65.14;100347.44;5084743;28;46189;-83
2022/11/03 05:00:57;;;;;;;;;2.75;1.75;;;;;14.33;64.93;100328.00;5079676;28;46182;-79
2022/11/03 05:03:27;;;;;;;;;3.75;3.00;;;;;14.16;65.10;100292.63;5078985;28;46003;-78
2022/11/03 05:05:53;;;;;;;;;5.00;3.25;;;;;14.35;64.74;100310.25;5079170;28;45620;-79
2022/11/03 05:08:19;;;;;;;;;4.00;4.00;;;;;14.42;64.83;100319.28;5077824;28;45426;-78
2022/11/03 05:10:46;;;;;;;;;3.50;3.50;;;;;14.42;64.91;100308.72;5076688;28;47223;-81
2022/11/03 05:13:16;;;;;;;;;3.25;3.00;;;;;14.36;64.69;100296.09;5076784;28;45735;-80
2022/11/03 05:15:44;;;;;;;;;3.00;3.00;;;;;14.39;65.10;100300.28;5077371;28;45671;-81
2022/11/03 05:18:18;;;;;;;;;4.50;3.25;;;;;14.42;64.93;100305.25;5076464;28;46504;-79
2022/11/03 05:20:49;;;;;;;;;3.75;3.50;;;;;14.42;64.74;100305.25;5076771;28;45846;-78
2022/11/03 05:23:15;;;;;;;;;4.50;3.50;;;;;14.38;64.72;100295.97;5076763;28;45631;-77
2022/11/03 05:29:12;;;;;;;;;6.25;4.00;;;;;14.37;64.86;100270.59;5076378;28;46055;-76
2022/11/03 05:31:41;;;;;;;;;4.75;3.75;;;;;14.41;64.93;100267.56;5076886;28;46082;-77
2022/11/03 05:34:18;;;;;;;;;3.00;3.00;;;;;14.39;65.06;100266.84;5076784;28;45875;-76
2022/11/03 05:36:43;;;;;;;;;4.75;4.00;;;;;14.40;64.90;100265.88;5077294;28;45689;-77
2022/11/03 05:39:36;;;;;;;;;6.00;5.00;;;;;14.34;64.54;100262.94;5076639;28;46367;-76
2022/11/03 05:42:24;;;;;;;;;4.50;4.00;;;;;14.37;64.60;100249.50;5074817;28;46048;-77
2022/11/03 05:44:51;;;;;;;;;5.00;4.00;;;;;14.29;65.13;100226.47;5076865;28;45757;-78
2022/11/03 05:47:35;;;;;;;;;6.00;5.00;;;;;14.35;65.33;100225.91;5059439;28;45804;-84
2022/11/03 05:50:28;;;;;;;;;5.25;5.25;;;;;14.29;65.22;100208.03;5076655;28;45431;-82
2022/11/03 05:52:57;;;;;;;;;4.00;4.00;;;;;14.30;64.79;100210.50;5074303;27;46021;-84
2022/11/03 05:55:26;;;;;;;;;9.00;5.00;;;;;14.27;65.14;100207.34;5076369;28;45993;-83
2022/11/03 05:57:56;;;;;;;;;5.00;4.75;;;;;14.28;64.84;100217.75;5058148;28;45644;-84
2022/11/03 06:00:28;;;;;;;;;6.00;6.00;;;;;14.27;65.36;100210.81;5076389;28;46379;-83
2022/11/03 06:02:55;;;;;;;;;3.00;3.00;;;;;14.28;64.90;100214.28;5076963;28;46951;-82
2022/11/03 06:05:22;;;;;;;;;5.25;4.50;;;;;14.26;65.09;100201.22;5078228;28;45739;-85
2022/11/03 06:07:51;;;;;;;;;5.25;5.25;;;;;14.25;65.09;100210.09;5079485;28;45503;-83
2022/11/03 06:10:24;;;;;;;;;4.25;4.25;;;;;14.29;65.20;100205.41;5076648;28;46455;-81
2022/11/03 06:12:53;;;;;;;;;6.75;4.50;;;;;14.26;65.22;100189.84;5076336;28;46929;-83
2022/11/03 06:15:28;;;;;;;;;4.50;4.00;;;;;14.27;65.17;100188.88;5076274;28;45529;-81
2022/11/03 06:17:53;;;;;;;;;8.50;6.00;;;;;14.27;65.28;100191.53;5076446;28;45451;-83
2022/11/03 06:20:21;;;;;;;;;6.00;6.00;;;;;14.26;64.91;100192.50;5076926;28;45550;-85
2022/11/03 06:22:48;;;;;;;;;4.75;3.00;;;;;14.19;65.39;100179.09;5077452;28;46924;-83
2022/11/03 06:25:31;;;;;;;;;6.25;4.00;;;;;14.17;65.51;100173.13;5076844;28;45677;-81
2022/11/03 06:28:05;;;;;;;;;5.75;5.00;;;;;14.24;65.41;100170.75;5075781;28;45542;-80
2022/11/03 06:30:37;;;;;;;;;5.00;4.00;;;;;14.17;65.17;100154.66;5075665;28;46778;-80
2022/11/03 06:33:15;;;;;;;;;4.75;4.50;;;;;14.18;65.15;100148.44;5075133;28;46106;-80
2022/11/03 06:35:42;;;;;;;;;4.00;3.75;;;;;14.22;65.26;100151.59;5075454;28;45652;-81
2022/11/03 06:38:16;;;;;;;;;4.00;4.00;;;;;14.22;65.10;100151.59;5057777;28;45636;-82
2022/11/03 06:40:42;;;;;;;;;4.00;4.00;;;;;14.19;65.48;100141.38;5075257;28;45700;-81
2022/11/03 06:43:37;;;;;;;;;5.75;4.00;;;;;14.20;65.25;100133.28;5056680;28;47077;-81
2022/11/03 06:46:12;;;;;;;;;4.00;4.00;;;;;14.02;65.39;100108.69;5075686;28;45834;-81
2022/11/03 06:48:38;;;;;;;;;4.75;4.50;;;;;14.21;65.02;100134.97;5075377;28;45606;-83
2022/11/03 06:51:15;;;;;;;;;4.75;4.75;;;;;14.17;65.54;100125.69;5075373;28;46793;-82
2022/11/03 06:53:40;;;;;;;;;5.50;4.00;;;;;14.07;65.04;100110.88;5056750;28;46621;-81
2022/11/03 06:56:11;;;;;;;;;5.00;4.00;;;;;14.16;65.52;100125.81;5075410;28;45594;-82
2022/11/03 06:58:37;;;;;;;;;2.50;2.50;;;;;14.20;65.62;100132.47;5076203;28;45855;-83
2022/11/03 07:01:13;;;;;;;;;4.50;4.25;;;;;14.20;64.97;100111.38;5075623;28;46598;-83
2022/11/03 07:03:39;;;;;;;;;5.00;3.00;;;;;14.21;65.02;100099.88;5075751;28;46040;-84
2022/11/03 07:06:23;;;;;;;;;5.50;4.75;;;;;14.21;65.48;100091.97;5075997;28;45651;-77
2022/11/03 07:08:59;;;;;;;;;5.50;4.50;;;;;14.18;65.50;100087.00;5076187;28;45648;-82
2022/11/03 07:11:29;;;;;;;;;6.50;3.50;;;;;14.21;65.26;100086.69;5074927;28;45836;-85
2022/11/03 07:14:13;;;;;;;;;4.25;3.00;;;;;14.20;64.87;100077.97;5075586;28;46076;-83
2022/11/03 07:16:39;;;;;;;;;4.50;3.75;;;;;14.20;65.33;100071.88;5076792;28;45808;-83
2022/11/03 07:19:22;;;;;;;;;4.33;3.33;;;;;14.14;64.79;100065.38;5076474;28;45557;-80
2022/11/03 07:21:50;;;;;;;;;3.75;3.00;;;;;14.19;65.30;100076.31;5073767;28;46509;-77
2022/11/03 07:24:23;;;;;;;;;3.00;3.00;;;;;14.20;65.13;100072.69;5073821;28;47184;-81
2022/11/03 07:26:55;;;;;;;;;2.25;2.00;;;;;14.21;65.23;100055.09;5074628;28;45761;-75
2022/11/03 07:29:24;;;;;;;;;2.75;2.75;;;;;14.23;65.11;100058.41;5074350;28;45582;-74
2022/11/03 07:31:50;;;;;;;;;5.00;4.25;;;;;14.24;65.16;100053.00;5074139;28;47103;-79
2022/11/03 07:34:21;;;;;;;;;5.50;4.00;;;;;14.26;64.83;100037.88;5074546;28;46364;-75
2022/11/03 07:36:56;;;;;;;;;4.25;4.25;;;;;14.24;64.53;100031.09;5074882;28;45788;-82
2022/11/03 07:39:22;;;;;;;;;4.75;3.75;;;;;14.29;64.91;100034.13;5074277;28;45633;-75
2022/11/03 07:41:49;;;;;;;;;6.00;3.75;;;;;14.18;64.74;100011.44;5074186;28;45627;-72
2022/11/03 07:44:20;;;;;;;;;5.00;3.75;;;;;14.28;64.90;100019.28;5073857;28;47073;-78
2022/11/03 07:46:48;;;;;;;;;3.50;3.00;;;;;14.33;64.34;100032.00;5074302;28;45679;-77
2022/11/03 07:49:27;;;;;;;;;4.50;3.50;;;;;14.33;64.45;100019.66;5074232;28;45637;-79
2022/11/03 07:51:57;;;;;;;;;4.25;4.25;;;;;14.35;64.70;100007.19;5074167;28;47792;-79
2022/11/03 07:54:27;;;;;;;;;4.00;3.50;;;;;14.37;64.29;100012.31;5074008;28;46511;-79
2022/11/03 07:56:59;;;;;;;;;4.00;4.00;;;;;14.38;64.09;100021.88;5074122;28;45547;-80
2022/11/03 07:59:31;;;;;;;;;5.00;3.00;;;;;14.39;64.26;100013.00;5074185;28;45686;-79
2022/11/03 08:01:59;;;;;;;;;6.00;4.50;;;;;14.39;64.26;100008.56;5074228;28;46470;-77
2022/11/03 08:04:28;;;;;;;;;5.75;4.50;;;;;14.39;64.13;99999.84;5074137;28;46120;-77
2022/11/03 08:06:53;;;;;;;;;4.50;4.00;;;;;14.42;64.12;100003.00;5074248;28;46120;-78
2022/11/03 08:09:19;;;;;;;;;5.00;4.00;;;;;14.43;64.32;99999.38;5074185;28;45558;-79
2022/11/03 08:11:45;;;;;;;;;6.00;5.75;;;;;14.43;63.79;100002.00;5073676;28;46394;-77
2022/11/03 08:14:10;;;;;;;;;3.50;3.00;;;;;14.45;63.95;99994.81;5073698;28;47056;-76
2022/11/03 08:16:36;;;;;;;;;5.75;4.75;;;;;14.44;63.90;99982.59;5074082;28;45695;-77
2022/11/03 08:19:02;;;;;;;;;9.00;5.50;;;;;14.50;63.54;99983.81;5074099;28;45718;-77
2022/11/03 08:21:27;;;;;;;;;3.50;3.00;;;;;14.52;63.49;99995.03;5073913;28;46273;-76
2022/11/03 08:23:53;;;;;;;;;2.00;2.00;;;;;14.50;63.73;99974.09;5073592;28;46755;-80
2022/11/03 08:26:19;;;;;;;;;4.25;3.50;;;;;14.55;63.61;99977.09;5074112;28;45575;-79
2022/11/03 08:28:45;;;;;;;;;4.00;4.00;;;;;14.59;63.76;99970.56;5074201;28;45585;-79
2022/11/03 08:31:11;;;;;;;;;4.00;4.00;;;;;14.57;63.12;99971.69;5073861;28;45614;-80
2022/11/03 08:33:36;;;;;;;;;4.25;3.50;;;;;14.62;63.08;99974.72;5073868;28;45939;-79
2022/11/03 08:36:03;;;;;;;;;6.00;4.00;;;;;14.63;63.23;99968.44;5073948;28;45636;-80
2022/11/03 08:38:29;;;;;;;;;4.00;3.50;;;;;14.66;63.24;99965.50;5074048;28;45680;-80
2022/11/03 08:40:55;;;;;;;;;3.00;3.00;;;;;14.73;62.97;99977.13;5074902;28;45745;-78
2022/11/03 08:43:21;;;;;;;;;5.00;3.75;;;;;14.75;62.79;99958.50;5073602;28;47152;-80
2022/11/03 08:45:52;;;;;;;;;4.00;3.00;;;;;14.72;63.19;99957.00;5074332;28;45730;-76
2022/11/03 08:48:17;;;;;;;;;5.00;3.00;;;;;14.81;62.81;99960.53;5075116;28;45616;-79
2022/11/03 08:50:43;;;;;;;;;5.25;4.00;;;;;14.82;62.91;99946.38;5075736;28;47429;-79
2022/11/03 08:53:08;;;;;;;;;4.50;4.25;;;;;14.85;62.76;99936.31;5076612;28;45958;-81
2022/11/03 08:55:33;;;;;;;;;4.50;3.25;;;;;14.86;62.71;99914.25;5077001;28;45661;-79
2022/11/03 08:57:59;;;;;;;;;5.00;3.75;;;;;14.84;62.60;99904.84;5077000;28;45863;-80
2022/11/03 09:00:24;;;;;;;;;3.50;3.25;;;;;14.92;62.44;99911.00;5058581;28;48293;-80
2022/11/03 09:02:49;;;;;;;;;6.00;3.25;;;;;14.94;62.20;99913.50;5076707;28;45790;-81
2022/11/03 09:05:15;;;;;;;;;3.50;3.50;;;;;14.90;62.42;99899.75;5077124;28;45695;-76
2022/11/03 09:07:40;;;;;;;;;4.75;3.00;;;;;14.96;62.11;99901.78;5077366;28;45771;-76
2022/11/03 09:10:09;;;;;;;;;4.00;3.75;;;;;14.95;62.39;99892.22;5076501;28;47624;-75
2022/11/03 09:15:56;;;;;;;;;3.75;3.75;;;;;14.99;62.13;99900.66;5076702;28;45616;-74
2022/11/03 09:18:21;;;;;;;;;4.75;3.75;;;;;14.94;62.22;99885.31;5077040;28;45650;-72
2022/11/03 09:20:47;;;;;;;;;3.25;3.25;;;;;15.00;61.90;99870.69;5076599;28;46169;-75
2022/11/03 09:23:12;;;;;;;;;4.50;4.00;;;;;14.97;62.05;99855.97;5076632;28;46154;-73
2022/11/03 09:25:37;;;;;;;;;3.50;3.00;;;;;15.03;61.92;99865.91;5076455;28;45654;-76
2022/11/03 09:31:27;;;;;;;;;4.25;3.75;;;;;15.01;61.92;99840.66;5076207;28;45626;-79
2022/11/03 09:33:53;;;;;;;;;4.50;3.75;;;;;15.07;62.01;99848.78;5076521;28;46027;-73
2022/11/03 09:36:18;;;;;;;;;3.50;3.00;;;;;15.08;61.96;99850.44;5076679;28;45675;-71
2022/11/03 09:38:43;;;;;;;;;5.00;4.00;;;;;15.11;61.55;99850.09;5076666;28;45458;-75
2022/11/03 09:41:16;;;;;;;;;3.00;3.00;;;;;15.11;61.97;99833.47;5076200;28;45549;-77
2022/11/03 09:43:45;;;;;;;;;4.25;3.25;;;;;15.15;61.61;99833.97;5076267;28;46051;-79
2022/11/03 09:46:11;;;;;;;;;4.25;3.00;;;;;15.19;61.49;99827.41;5076094;28;45606;-79
2022/11/03 09:48:37;;;;;;;;;2.75;2.75;;;;;15.19;61.57;99828.22;5076451;28;45823;-78
2022/11/03 09:51:03;;;;;;;;;5.00;4.00;;;;;15.23;61.60;99826.09;5076207;28;45498;-75
2022/11/03 09:53:29;;;;;;;;;5.00;4.50;;;;;15.26;61.45;99820.50;5076023;28;46022;-75
2022/11/03 09:55:55;;;;;;;;;4.00;3.50;;;;;15.27;61.28;99814.25;5076609;28;45577;-74
2022/11/03 10:01:44;;;;;;;;;3.25;2.75;;;;;15.35;61.37;99806.34;5075864;28;46196;-76
2022/11/03 10:04:11;;;;;;;;;4.50;4.00;;;;;15.35;61.14;99804.53;5075786;28;46418;-77
2022/11/03 10:06:37;;;;;;;;;2.00;2.00;;;;;15.43;61.05;99795.84;5077424;28;45801;-77
2022/11/03 10:09:03;;;;;;;;;5.25;4.00;;;;;15.44;60.98;99794.81;5078200;28;45796;-75
2022/11/03 10:11:30;;;;;;;;;3.75;3.75;;;;;15.51;60.95;99790.56;5077254;28;46435;-80
2022/11/03 10:13:57;;;;;;;;;3.25;2.75;;;;;15.53;60.79;99788.63;5076112;28;46367;-76
2022/11/03 10:16:25;;;;;;;;;5.50;4.00;;;;;15.50;60.82;99779.19;5075862;28;45821;-79
2022/11/03 10:18:51;;;;;;;;;3.25;3.00;;;;;15.58;60.48;99790.78;5075514;28;45601;-75
2022/11/03 10:21:19;;;;;;;;;0.50;0.00;;;;;15.60;60.55;99788.84;5075265;28;47457;-74
2022/11/03 10:23:45;;;;;;;;;4.75;3.25;;;;;15.60;60.27;99768.50;5075391;28;45570;-75
2022/11/03 10:26:16;;;;;;;;;4.00;4.00;;;;;15.63;60.19;99764.72;5075448;28;45527;-73
2022/11/03 10:32:27;;;;;;;;;4.75;4.00;;;;;15.71;60.07;99770.84;5075096;28;45509;-77
2022/11/03 10:34:53;;;;;;;;;4.00;4.00;;;;;15.73;59.93;99763.59;5075465;28;46063;-75
2022/11/03 10:37:28;;;;;;;;;4.00;4.00;;;;;15.78;60.00;99760.47;5075193;28;45551;-78
2022/11/03 10:39:55;;;;;;;;;4.00;3.00;;;;;15.80;59.78;99743.47;5075243;28;45557;-77
2022/11/03 10:42:30;;;;;;;;;3.75;3.75;;;;;15.87;59.54;99747.09;5075150;28;46274;-80
2022/11/03 10:45:14;;;;;;;;;3.00;3.00;;;;;15.91;59.78;99742.31;5075265;28;45983;-78
2022/11/03 10:47:39;;;;;;;;;4.75;4.00;;;;;15.97;59.64;99752.22;5056533;28;45571;-73
2022/11/03 10:50:31;;;;;;;;;5.50;4.00;;;;;15.99;59.25;99746.75;5075111;28;45607;-75
2022/11/03 10:52:57;;;;;;;;;3.00;3.00;;;;;16.02;58.99;99746.44;5072886;28;46608;-74
2022/11/03 10:55:23;;;;;;;;;5.75;4.25;;;;;16.00;58.89;99735.22;5074880;28;46537;-75
2022/11/03 10:57:50;;;;;;;;;5.00;4.00;;;;;16.06;58.86;99726.63;5074757;28;45649;-76
2022/11/03 11:00:17;;;;;;;;;5.75;4.75;;;;;16.08;58.48;99737.88;5075192;28;45527;-78
2022/11/03 11:02:45;;;;;;;;;3.00;3.00;;;;;16.11;58.72;99717.22;5074585;28;45678;-79
2022/11/03 11:05:22;;;;;;;;;3.25;3.25;;;;;16.15;58.65;99730.91;5074705;28;46215;-74
2022/11/03 11:07:51;;;;;;;;;3.75;3.75;;;;;16.17;58.80;99719.19;5074705;28;45714;-73
2022/11/03 11:10:20;;;;;;;;;4.50;2.50;;;;;16.21;58.89;99725.78;5075094;28;45455;-75
2022/11/03 11:13:03;;;;;;;;;3.00;3.00;;;;;16.23;58.40;99723.00;5074515;28;47592;-74
2022/11/03 11:15:39;;;;;;;;;4.00;4.00;;;;;16.28;58.57;99726.78;5073987;28;45954;-80
2022/11/03 11:18:05;;;;;;;;;4.25;3.00;;;;;16.29;58.60;99714.41;5074928;28;45582;-77
2022/11/03 11:20:50;;;;;;;;;2.50;2.50;;;;;16.22;58.15;99690.44;5074969;28;45553;-79
2022/11/03 11:23:27;;;;;;;;;2.25;2.25;;;;;16.32;58.17;99679.69;5074395;28;47483;-78
2022/11/03 11:26:08;;;;;;;;;4.75;3.00;;;;;16.32;58.09;99685.78;5074684;28;45957;-75
2022/11/03 11:28:40;;;;;;;;;2.00;1.50;;;;;16.35;58.62;99703.97;5074619;28;45676;-77
2022/11/03 11:31:29;;;;;;;;;5.00;4.00;;;;;16.36;58.56;99697.69;5074681;28;45619;-73
2022/11/03 11:34:20;;;;;;;;;3.00;2.50;;;;;16.34;59.11;99704.13;5074158;28;45760;-74
2022/11/03 11:37:06;;;;;;;;;3.00;2.00;;;;;16.36;59.60;99692.38;5031890;28;45994;-73
2022/11/03 11:39:32;;;;;;;;;4.00;3.00;;;;;16.37;59.90;99687.94;5032026;28;45733;-78
2022/11/03 11:45:58;;;;;;;;;3.00;3.00;;;;;16.43;60.65;99684.63;5031554;28;45587;-73
2022/11/03 11:48:23;;;;;;;;;4.00;4.00;;;;;16.43;60.39;99678.50;5031473;28;46187;-74
2022/11/03 11:50:49;;;;;;;;;5.75;3.50;;;;;16.41;60.75;99662.78;5031591;28;45634;-78
2022/11/03 11:53:21;;;;;;;;;4.75;3.00;;;;;16.46;60.77;99657.03;5031586;28;45705;-75
2022/11/03 11:55:56;;;;;;;;;4.00;3.75;;;;;16.42;60.87;99648.59;5031378;28;45586;-76
2022/11/03 12:01:47;;;;;;;;;3.75;3.00;;;;;16.42;61.07;99647.75;5031199;28;45729;-76
2022/11/03 12:04:25;;;;;;;;;4.00;4.00;;;;;16.40;61.46;99637.38;5031748;28;45659;-75
2022/11/03 12:06:50;;;;;;;;;4.00;4.00;;;;;16.41;61.72;99641.63;5031481;28;45705;-78
2022/11/03 12:09:19;;;;;;;;;5.00;4.00;;;;;16.41;62.11;99646.94;5031374;28;45599;-77
2022/11/03 12:11:54;;;;;;;;;5.75;5.00;;;;;16.41;61.66;99654.06;5031260;28;45827;-75
2022/11/03 12:17:41;;;;;;;;;4.75;4.75;;;;;16.37;62.13;99635.88;5073710;28;45945;-75
2022/11/03 12:20:44;;;;;;;;;5.00;4.00;;;;;16.37;62.49;99645.63;5055647;28;46587;-77
2022/11/03 12:23:09;;;;;;;;;4.25;4.25;;;;;16.34;62.32;99630.94;5073704;28;45761;-79
2022/11/03 12:25:35;;;;;;;;;3.00;3.00;;;;;16.31;62.73;99623.34;5074593;28;45476;-77
2022/11/03 12:28:01;;;;;;;;;3.75;3.00;;;;;16.18;62.22;99607.19;5077157;28;47269;-76
2022/11/03 12:30:26;;;;;;;;;6.00;3.00;;;;;16.19;62.70;99605.38;5058711;28;48082;-77
2022/11/03 12:32:52;;;;;;;;;3.00;1.00;;;;;16.17;62.54;99600.25;5077070;28;45546;-75
2022/11/03 12:35:17;;;;;;;;;4.00;3.00;;;;;16.21;63.05;99600.75;5077237;28;45776;-74
2022/11/03 12:37:43;;;;;;;;;3.50;3.00;;;;;16.20;63.10;99599.91;5076983;28;47320;-80